Riceville, Tennessee
Current Conditions -  °F | °C
As of 3:15 PM on Sunday 21 Dec 2014 (Local Time) from KMMI Reporting Station
Overcast Overcast  
Wind Chill: 46°   Ceiling: 3900
Heat Index: 48°   Visibility: 10mi
Dew Point: 37°   Wind: 5mph
Humidity: 66%   Direction: 330°NNW
Pressure: 30.12"   Gusts: NA
Location:  35.38°N, 84.69°W
Report Text: KMMI 212015Z AUTO 33004KT 10SM OVC039 09/03 A3012 RMK
Loading
Personal Weather Stations






























Interactive Weather Map New forecast layout! Learn more

10-Day Weather Forecast

Advertisements
Track Severe Weather on mobile